createdAt,value
2023-04-05T00:01:19.302Z,8.70
2023-04-05T00:03:48.598Z,8.60
2023-04-05T00:06:16.927Z,8.60
2023-04-05T00:08:50.034Z,8.60
2023-04-05T00:11:18.853Z,8.60
2023-04-05T00:13:47.129Z,8.60
2023-04-05T00:16:16.036Z,8.60
2023-04-05T00:18:49.916Z,8.60
2023-04-05T00:21:18.394Z,8.60
2023-04-05T00:23:48.808Z,8.60
2023-04-05T00:26:17.225Z,8.60
2023-04-05T00:28:49.337Z,8.60
2023-04-05T00:31:18.151Z,8.50
2023-04-05T00:33:46.767Z,8.50
2023-04-05T00:36:17.116Z,8.50
2023-04-05T00:38:47.957Z,8.50
2023-04-05T00:41:16.699Z,8.60
2023-04-05T00:43:45.204Z,8.60
2023-04-05T00:46:13.693Z,8.50
2023-04-05T00:48:42.349Z,8.50
2023-04-05T00:51:12.215Z,8.50
2023-04-05T00:53:43.063Z,8.40
2023-04-05T00:56:13.856Z,8.40
2023-04-05T00:58:43.063Z,8.40
2023-04-05T01:01:16.789Z,8.40
2023-04-05T01:03:48.427Z,8.40
2023-04-05T01:06:22.010Z,8.40
2023-04-05T01:09:01.889Z,8.40
2023-04-05T01:11:33.372Z,8.40
2023-04-05T01:14:02.392Z,8.40
2023-04-05T01:16:30.981Z,8.40
2023-04-05T01:18:59.526Z,8.30
2023-04-05T01:22:06.004Z,8.30
2023-04-05T01:24:52.903Z,8.30
2023-04-05T01:27:32.668Z,8.30
2023-04-05T01:30:10.992Z,8.30
2023-04-05T01:32:52.187Z,8.30
2023-04-05T01:35:25.932Z,8.30
2023-04-05T01:38:00.609Z,8.20
2023-04-05T01:40:29.548Z,8.20
2023-04-05T01:42:57.782Z,8.20
2023-04-05T01:45:27.397Z,8.20
2023-04-05T01:47:55.867Z,8.20
2023-04-05T01:50:24.601Z,8.20
2023-04-05T01:52:52.805Z,8.20
2023-04-05T01:55:21.037Z,8.20
2023-04-05T01:57:49.293Z,8.20
2023-04-05T02:00:18.136Z,8.20
2023-04-05T02:02:48.473Z,8.10
2023-04-05T02:05:17.260Z,8.10
2023-04-05T02:07:45.602Z,8.10
2023-04-05T02:10:13.920Z,8.10
2023-04-05T02:12:42.073Z,8.20
2023-04-05T02:15:12.347Z,8.10
2023-04-05T02:17:45.855Z,8.10
2023-04-05T02:20:15.698Z,8.10
2023-04-05T02:22:45.496Z,8.10
2023-04-05T02:25:14.254Z,8.10
2023-04-05T02:27:42.622Z,8.10
2023-04-05T02:30:13.683Z,8.10
2023-04-05T02:32:44.834Z,8.10
2023-04-05T02:35:13.213Z,8.10
2023-04-05T02:37:42.836Z,8.10
2023-04-05T02:40:15.734Z,8.10
2023-04-05T02:42:43.973Z,8.10
2023-04-05T02:45:12.641Z,8.10
2023-04-05T02:47:41.338Z,8.00
2023-04-05T02:50:09.786Z,8.00
2023-04-05T02:52:45.258Z,8.10
2023-04-05T02:55:13.869Z,8.00
2023-04-05T02:57:43.270Z,8.10
2023-04-05T03:00:29.199Z,8.10
2023-04-05T03:03:00.378Z,8.00
2023-04-05T03:05:28.902Z,8.00
2023-04-05T03:08:02.303Z,8.00
2023-04-05T03:10:36.185Z,8.00
2023-04-05T03:13:15.551Z,8.00
2023-04-05T03:15:44.989Z,8.00
2023-04-05T03:18:16.641Z,8.00
2023-04-05T03:20:46.328Z,8.00
2023-04-05T03:23:21.420Z,8.00
2023-04-05T03:25:57.325Z,8.00
2023-04-05T03:28:29.527Z,8.00
2023-04-05T03:31:02.950Z,7.90
2023-04-05T03:33:31.409Z,7.90
2023-04-05T03:36:01.305Z,8.00
2023-04-05T03:38:34.910Z,8.00
2023-04-05T03:41:20.162Z,8.00
2023-04-05T03:43:48.872Z,8.00
2023-04-05T03:46:17.662Z,8.00
2023-04-05T03:48:45.912Z,8.00
2023-04-05T03:51:14.096Z,8.00
2023-04-05T03:53:43.675Z,8.00
2023-04-05T03:56:12.514Z,8.00
2023-04-05T03:58:46.790Z,8.00
2023-04-05T04:01:16.969Z,7.90
2023-04-05T04:03:45.307Z,7.90
2023-04-05T04:06:13.628Z,7.90
2023-04-05T04:08:44.294Z,7.90
2023-04-05T04:11:12.565Z,8.00
2023-04-05T04:13:42.855Z,8.00
2023-04-05T04:16:40.153Z,8.00
2023-04-05T04:19:27.153Z,7.90
2023-04-05T04:22:10.248Z,7.90
2023-04-05T04:24:58.380Z,7.90
2023-04-05T04:27:46.781Z,7.90
2023-04-05T04:30:35.871Z,7.80
2023-04-05T04:33:11.201Z,7.80
2023-04-05T04:35:57.933Z,7.90
2023-04-05T04:38:55.663Z,7.80
2023-04-05T04:41:54.854Z,7.80
2023-04-05T04:44:49.590Z,7.80
2023-04-05T04:47:47.229Z,7.80
2023-04-05T04:50:25.994Z,7.80
2023-04-05T04:52:54.421Z,7.80
2023-04-05T04:55:26.215Z,7.80
2023-04-05T04:57:56.675Z,7.80
2023-04-05T05:00:25.898Z,7.80
2023-04-05T05:02:56.765Z,7.80
2023-04-05T05:05:25.094Z,7.80
2023-04-05T05:07:53.685Z,7.80
2023-04-05T05:10:22.302Z,7.70
2023-04-05T05:12:51.775Z,7.70
2023-04-05T05:15:21.786Z,7.80
2023-04-05T05:17:55.183Z,7.80
2023-04-05T05:20:23.540Z,7.80
2023-04-05T05:22:52.761Z,7.80
2023-04-05T05:25:21.656Z,7.70
2023-04-05T05:27:50.899Z,7.70
2023-04-05T05:30:21.694Z,7.70
2023-04-05T05:32:51.081Z,7.70
2023-04-05T05:35:19.573Z,7.80
2023-04-05T05:37:47.847Z,7.80
2023-04-05T05:40:16.314Z,7.80
2023-04-05T05:42:44.589Z,7.80
2023-04-05T05:45:13.155Z,7.70
2023-04-05T05:47:43.184Z,7.80
2023-04-05T05:50:12.062Z,7.90
2023-04-05T05:52:40.424Z,7.80
2023-04-05T05:55:09.514Z,7.80
2023-04-05T05:57:38.867Z,7.90
2023-04-05T06:00:09.808Z,7.90
2023-04-05T06:02:42.164Z,7.90
2023-04-05T06:05:10.775Z,8.00
2023-04-05T06:07:39.161Z,8.00
2023-04-05T06:10:08.773Z,7.90
2023-04-05T06:12:37.083Z,8.00
2023-04-05T06:15:06.494Z,8.20
2023-04-05T06:17:41.818Z,8.30
2023-04-05T06:20:12.802Z,8.20
2023-04-05T06:22:41.583Z,8.20
2023-04-05T06:25:12.423Z,8.30
2023-04-05T06:27:40.815Z,8.20
2023-04-05T06:30:10.031Z,8.30
2023-04-05T06:32:38.565Z,8.20
2023-04-05T06:35:08.090Z,8.40
2023-04-05T06:37:37.774Z,8.40
2023-04-05T06:40:07.179Z,8.50
2023-04-05T06:42:36.074Z,8.50
2023-04-05T06:45:07.539Z,8.50
2023-04-05T06:47:36.226Z,8.50
2023-04-05T06:50:04.693Z,8.60
2023-04-05T06:52:33.683Z,8.60
2023-04-05T06:55:03.776Z,8.70
2023-04-05T06:57:32.269Z,8.60
2023-04-05T07:00:00.575Z,8.60
2023-04-05T07:02:28.946Z,8.50
2023-04-05T07:05:03.861Z,8.70
2023-04-05T07:07:32.269Z,8.70
2023-04-05T07:10:00.671Z,8.70
2023-04-05T07:12:30.434Z,8.80
2023-04-05T07:15:00.134Z,8.70
2023-04-05T07:17:28.525Z,8.80
2023-04-05T07:19:56.741Z,8.80
2023-04-05T07:22:25.049Z,8.80
2023-04-05T07:24:53.493Z,8.80
2023-04-05T07:27:21.773Z,8.80
2023-04-05T07:29:51.433Z,8.80
2023-04-05T07:32:19.719Z,8.80
2023-04-05T07:34:48.314Z,8.80
2023-04-05T07:37:16.868Z,8.80
2023-04-05T07:39:45.058Z,8.90
2023-04-05T07:42:13.309Z,8.90
2023-04-05T07:44:41.585Z,8.80
2023-04-05T07:47:11.215Z,8.90
2023-04-05T07:49:39.706Z,8.90
2023-04-05T07:52:08.033Z,9.00
2023-04-05T07:54:38.647Z,9.00
2023-04-05T07:57:07.403Z,9.00
2023-04-05T07:59:36.279Z,9.10
2023-04-05T08:02:13.838Z,9.10
2023-04-05T08:04:44.490Z,9.00
2023-04-05T08:07:13.060Z,9.00
2023-04-05T08:09:41.405Z,9.00
2023-04-05T08:12:11.412Z,9.10
2023-04-05T08:14:39.883Z,9.20
2023-04-05T08:17:08.127Z,9.10
2023-04-05T08:19:36.391Z,9.20
2023-04-05T08:22:06.035Z,9.10
2023-04-05T08:24:34.372Z,9.00
2023-04-05T08:27:02.849Z,9.10
2023-04-05T08:29:31.505Z,9.10
2023-04-05T08:31:59.861Z,9.10
2023-04-05T08:34:28.132Z,9.20
2023-04-05T08:37:00.029Z,9.20
2023-04-05T08:39:29.868Z,9.20
2023-04-05T08:42:05.871Z,9.10
2023-04-05T08:44:37.770Z,9.20
2023-04-05T08:47:06.394Z,9.20
2023-04-05T08:49:34.721Z,9.10
2023-04-05T08:52:04.347Z,9.20
2023-04-05T08:54:34.089Z,9.20
2023-04-05T08:57:04.071Z,9.10
2023-04-05T08:59:35.361Z,9.20
2023-04-05T09:02:09.160Z,9.20
2023-04-05T09:04:44.947Z,9.10
2023-04-05T09:07:15.076Z,9.20
2023-04-05T09:09:49.858Z,9.10
2023-04-05T09:12:20.163Z,9.10
2023-04-05T09:14:49.879Z,9.10
2023-04-05T09:17:19.617Z,9.10
2023-04-05T09:19:50.347Z,9.10
2023-04-05T09:22:19.582Z,9.10
2023-04-05T09:24:49.166Z,9.20
2023-04-05T09:27:22.080Z,9.20
2023-04-05T09:29:58.305Z,9.10
2023-04-05T09:32:29.414Z,9.20
2023-04-05T09:35:04.100Z,9.10
2023-04-05T09:37:35.672Z,9.00
2023-04-05T09:40:07.152Z,9.10
2023-04-05T09:42:45.000Z,9.10
2023-04-05T09:45:14.074Z,9.10
2023-04-05T09:47:57.888Z,9.10
2023-04-05T09:50:26.682Z,9.20
2023-04-05T09:53:08.188Z,9.20
2023-04-05T09:55:38.260Z,9.20
2023-04-05T09:58:12.394Z,9.20
2023-04-05T10:00:55.702Z,9.20
2023-04-05T10:03:31.324Z,9.20
2023-04-05T10:05:59.859Z,9.20
2023-04-05T10:08:28.308Z,9.20
2023-04-05T10:10:58.621Z,9.30
2023-04-05T10:13:27.739Z,9.20
2023-04-05T10:16:01.733Z,9.20
2023-04-05T10:18:41.578Z,9.10
2023-04-05T10:21:12.397Z,9.20
2023-04-05T10:23:45.560Z,9.20
2023-04-05T10:26:22.773Z,9.10
2023-04-05T10:28:57.295Z,9.20
2023-04-05T10:31:37.769Z,9.20
2023-04-05T10:34:08.221Z,9.20
2023-04-05T10:36:43.409Z,9.20
2023-04-05T10:39:16.849Z,9.20
2023-04-05T10:41:49.967Z,9.20
2023-04-05T10:44:25.738Z,9.20
2023-04-05T10:46:56.042Z,9.20
2023-04-05T10:49:33.582Z,9.10
2023-04-05T10:52:03.220Z,9.10
2023-04-05T10:54:34.866Z,9.10
2023-04-05T10:57:08.776Z,9.10
2023-04-05T10:59:43.167Z,9.20
2023-04-05T11:02:12.124Z,9.20
2023-04-05T11:04:42.320Z,9.20
2023-04-05T11:07:13.337Z,9.20
2023-04-05T11:09:52.892Z,9.20
2023-04-05T11:13:00.808Z,9.20
2023-04-05T11:15:34.746Z,9.20
2023-04-05T11:18:11.517Z,9.20
2023-04-05T11:20:51.831Z,9.20
2023-04-05T11:23:23.785Z,9.20
2023-04-05T11:25:53.768Z,9.20
2023-04-05T11:28:27.197Z,9.30
2023-04-05T11:30:59.041Z,9.30
2023-04-05T11:33:37.988Z,9.30
2023-04-05T11:36:07.069Z,9.20
2023-04-05T11:38:35.329Z,9.30
2023-04-05T11:41:07.884Z,9.30
2023-04-05T11:43:38.268Z,9.30
2023-04-05T11:46:08.041Z,9.30
2023-04-05T11:48:36.621Z,9.30
2023-04-05T11:51:10.487Z,9.40
2023-04-05T11:53:39.126Z,9.40
2023-04-05T11:56:13.338Z,9.40
2023-04-05T11:58:41.829Z,9.40
2023-04-05T12:01:11.566Z,9.40
2023-04-05T12:03:40.082Z,9.30
2023-04-05T12:06:09.061Z,9.30
2023-04-05T12:08:42.049Z,9.50
2023-04-05T12:11:13.421Z,9.40
2023-04-05T12:13:41.851Z,9.40
2023-04-05T12:16:11.625Z,9.40
2023-04-05T12:18:40.341Z,9.40
2023-04-05T12:21:10.386Z,9.40
2023-04-05T12:23:38.941Z,9.40
2023-04-05T12:26:09.200Z,9.40
2023-04-05T12:28:53.911Z,9.40
2023-04-05T12:31:39.813Z,9.40
2023-04-05T12:34:08.424Z,9.40
2023-04-05T12:36:37.422Z,9.40
2023-04-05T12:39:09.172Z,9.40
2023-04-05T12:41:38.287Z,9.40
2023-04-05T12:44:07.119Z,9.40
2023-04-05T12:46:44.263Z,9.30
2023-04-05T12:49:13.081Z,9.30
2023-04-05T12:51:44.071Z,9.40
2023-04-05T12:54:14.686Z,9.40
2023-04-05T12:56:42.963Z,9.30
2023-04-05T12:59:11.543Z,9.40
2023-04-05T13:01:39.853Z,9.40
2023-04-05T13:04:16.211Z,9.40
2023-04-05T13:06:47.573Z,9.40
2023-04-05T13:09:17.685Z,9.30
2023-04-05T13:11:46.225Z,9.40
2023-04-05T13:14:14.518Z,9.40
2023-04-05T13:16:42.765Z,9.40
2023-04-05T13:19:12.397Z,9.40
2023-04-05T13:21:40.693Z,9.30
2023-04-05T13:24:11.532Z,9.10
2023-04-05T13:26:41.413Z,9.30
2023-04-05T13:29:09.588Z,9.30
2023-04-05T13:31:37.918Z,9.40
2023-04-05T13:34:06.425Z,9.40
2023-04-05T13:36:36.093Z,9.40
2023-04-05T13:39:04.362Z,9.30
2023-04-05T13:41:32.691Z,9.40
2023-04-05T13:44:02.916Z,9.40
2023-04-05T13:46:32.294Z,9.40
2023-04-05T13:49:00.554Z,9.40
2023-04-05T13:51:31.399Z,9.40
2023-04-05T13:54:01.084Z,9.40
2023-04-05T13:56:29.347Z,9.40
2023-04-05T13:58:57.570Z,9.40
2023-04-05T14:01:26.001Z,9.40
2023-04-05T14:03:54.498Z,9.40
2023-04-05T14:06:22.985Z,9.40
2023-04-05T14:08:55.131Z,9.40
2023-04-05T14:11:24.774Z,9.40
2023-04-05T14:13:53.122Z,9.30
2023-04-05T14:16:21.460Z,9.30
2023-04-05T14:18:49.793Z,9.30
2023-04-05T14:21:18.293Z,9.40
2023-04-05T14:23:47.353Z,9.40
2023-04-05T14:26:15.618Z,9.40
2023-04-05T14:28:45.327Z,9.40
2023-04-05T14:31:13.732Z,9.50
2023-04-05T14:33:42.185Z,9.50
2023-04-05T14:36:10.648Z,9.50
2023-04-05T14:38:38.905Z,9.50
2023-04-05T14:41:08.543Z,9.40
2023-04-05T14:43:37.117Z,9.40
2023-04-05T14:46:06.985Z,9.40
2023-04-05T14:48:35.828Z,9.40
2023-04-05T14:51:04.484Z,9.40
2023-04-05T14:53:32.973Z,9.40
2023-04-05T14:56:01.319Z,9.50
2023-04-05T14:58:30.135Z,9.50
2023-04-05T15:00:59.040Z,9.40
2023-04-05T15:03:30.955Z,9.40
2023-04-05T15:05:59.821Z,9.50
2023-04-05T15:08:28.207Z,9.40
2023-04-05T15:10:56.545Z,9.40
2023-04-05T15:13:26.866Z,9.40
2023-04-05T15:15:55.352Z,9.40
2023-04-05T15:18:23.608Z,9.40
2023-04-05T15:20:53.445Z,9.50
2023-04-05T15:23:22.119Z,9.50
2023-04-05T15:25:50.464Z,9.40
2023-04-05T15:28:19.041Z,9.40
2023-04-05T15:30:47.343Z,9.40
2023-04-05T15:33:15.753Z,9.40
2023-04-05T15:35:44.210Z,9.40
2023-04-05T15:38:13.932Z,9.40
2023-04-05T15:40:42.270Z,9.30
2023-04-05T15:43:11.294Z,9.40
2023-04-05T15:45:39.679Z,9.40
2023-04-05T15:48:08.135Z,9.40
2023-04-05T15:50:36.484Z,9.40
2023-04-05T15:53:05.108Z,9.40
2023-04-05T15:55:34.823Z,9.40
2023-04-05T15:58:03.241Z,9.40
2023-04-05T16:00:32.682Z,9.50
2023-04-05T16:03:01.332Z,9.40
2023-04-05T16:05:30.016Z,9.40
2023-04-05T16:07:59.507Z,9.40
2023-04-05T16:10:27.873Z,9.40
2023-04-05T16:12:58.178Z,9.40
2023-04-05T16:15:26.562Z,9.50
2023-04-05T16:17:54.881Z,9.40
2023-04-05T16:20:23.682Z,9.40
2023-04-05T16:22:52.848Z,9.40
2023-04-05T16:25:21.187Z,9.40
2023-04-05T16:27:49.604Z,9.40
2023-04-05T16:30:19.468Z,9.40
2023-04-05T16:32:47.919Z,9.50
2023-04-05T16:35:16.675Z,9.50
2023-04-05T16:37:45.704Z,9.50
2023-04-05T16:40:14.622Z,9.50
2023-04-05T16:42:42.940Z,9.50
2023-04-05T16:45:12.590Z,9.50
2023-04-05T16:47:42.331Z,9.40
2023-04-05T16:50:11.207Z,9.40
2023-04-05T16:52:39.577Z,9.50
2023-04-05T16:55:09.110Z,9.50
2023-04-05T16:57:37.404Z,9.50
2023-04-05T17:00:06.894Z,9.50
2023-04-05T17:02:35.316Z,9.50
2023-04-05T17:05:06.013Z,9.50
2023-04-05T17:07:34.449Z,9.50
2023-04-05T17:10:04.426Z,9.50
2023-04-05T17:12:35.388Z,9.50
2023-04-05T17:15:04.048Z,9.50
2023-04-05T17:17:32.356Z,9.50
2023-04-05T17:20:00.718Z,9.50
2023-04-05T17:22:31.557Z,9.60
2023-04-05T17:25:01.367Z,9.60
2023-04-05T17:27:29.776Z,9.50
2023-04-05T17:29:59.100Z,9.50
2023-04-05T17:32:28.556Z,9.50
2023-04-05T17:34:56.897Z,9.60
2023-04-05T17:37:25.412Z,9.60
2023-04-05T17:39:55.180Z,9.60
2023-04-05T17:42:24.282Z,9.60
2023-04-05T17:44:54.288Z,9.50
2023-04-05T17:47:23.879Z,9.50
2023-04-05T17:49:52.274Z,9.60
2023-04-05T17:52:22.480Z,9.50
2023-04-05T17:54:52.401Z,9.60
2023-04-05T17:57:22.175Z,9.50
2023-04-05T17:59:50.544Z,9.60
2023-04-05T18:02:18.976Z,9.60
2023-04-05T18:04:47.485Z,9.60
2023-04-05T18:07:15.864Z,9.60
2023-04-05T18:09:44.226Z,9.60
2023-04-05T18:12:12.649Z,9.60
2023-04-05T18:14:42.471Z,9.60
2023-04-05T18:17:10.773Z,9.60
2023-04-05T18:19:39.071Z,9.60
2023-04-05T18:22:07.764Z,9.60
2023-04-05T18:24:36.103Z,9.60
2023-04-05T18:27:04.378Z,9.60
2023-04-05T18:29:37.792Z,9.60
2023-04-05T18:32:08.403Z,9.60
2023-04-05T18:34:36.991Z,9.60
2023-04-05T18:37:05.656Z,9.60
2023-04-05T18:39:33.951Z,9.60
2023-04-05T18:42:02.795Z,9.60
2023-04-05T18:44:31.228Z,9.60
2023-04-05T18:46:59.613Z,9.60
2023-04-05T18:49:29.324Z,9.60
2023-04-05T18:51:57.642Z,9.50
2023-04-05T18:54:26.201Z,9.60
2023-04-05T18:56:54.544Z,9.50
2023-04-05T18:59:23.262Z,9.60
2023-04-05T19:01:51.768Z,9.60
2023-04-05T19:04:20.098Z,9.60
2023-04-05T19:06:49.835Z,9.60
2023-04-05T19:09:18.237Z,9.60
2023-04-05T19:11:46.771Z,9.60
2023-04-05T19:14:15.024Z,9.60
2023-04-05T19:16:43.666Z,9.70
2023-04-05T19:19:12.074Z,9.70
2023-04-05T19:21:40.556Z,9.60
2023-04-05T19:24:13.164Z,9.60
2023-04-05T19:26:41.878Z,9.60
2023-04-05T19:29:11.091Z,9.60
2023-04-05T19:31:40.069Z,9.70
2023-04-05T19:34:08.811Z,9.70
2023-04-05T19:36:38.134Z,9.60
2023-04-05T19:39:07.499Z,9.60
2023-04-05T19:41:37.718Z,9.60
2023-04-05T19:44:11.141Z,9.70
2023-04-05T19:46:41.481Z,9.70
2023-04-05T19:49:13.426Z,9.70
2023-04-05T19:51:43.076Z,9.60
2023-04-05T19:54:14.619Z,9.60
2023-04-05T19:56:44.261Z,9.60
2023-04-05T19:59:29.351Z,9.70
2023-04-05T20:01:58.981Z,9.70
2023-04-05T20:04:28.564Z,9.80
2023-04-05T20:06:57.482Z,9.70
2023-04-05T20:09:28.883Z,9.70
2023-04-05T20:12:00.059Z,9.70
2023-04-05T20:14:31.076Z,9.70
2023-04-05T20:16:59.728Z,9.60
2023-04-05T20:19:32.627Z,9.60
2023-04-05T20:22:02.358Z,9.60
2023-04-05T20:24:30.787Z,9.60
2023-04-05T20:27:01.240Z,9.60
2023-04-05T20:29:32.453Z,9.60
2023-04-05T20:32:02.084Z,9.70
2023-04-05T20:34:32.683Z,9.60
2023-04-05T20:37:02.622Z,9.60
2023-04-05T20:39:31.809Z,9.50
2023-04-05T20:42:02.111Z,9.50
2023-04-05T20:44:30.632Z,9.50
2023-04-05T20:46:58.963Z,9.50
2023-04-05T20:49:28.121Z,9.50
2023-04-05T20:51:57.530Z,9.50
2023-04-05T20:54:26.103Z,9.40
2023-04-05T20:56:54.346Z,9.50
2023-04-05T20:59:24.084Z,9.40
2023-04-05T21:01:52.524Z,9.40
2023-04-05T21:04:20.955Z,9.40
2023-04-05T21:06:49.237Z,9.40
2023-04-05T21:09:17.611Z,9.40
2023-04-05T21:11:45.870Z,9.30
2023-04-05T21:14:14.285Z,9.30
2023-04-05T21:16:43.979Z,9.30
2023-04-05T21:19:12.446Z,9.30
2023-04-05T21:21:40.773Z,9.30
2023-04-05T21:24:09.192Z,9.30
2023-04-05T21:26:37.508Z,9.30
2023-04-05T21:29:06.054Z,9.30
2023-04-05T21:31:34.685Z,9.30
2023-04-05T21:34:04.449Z,9.30
2023-04-05T21:36:32.758Z,9.30
2023-04-05T21:39:01.057Z,9.30
2023-04-05T21:41:29.359Z,9.20
2023-04-05T21:43:57.796Z,9.20
2023-04-05T21:46:26.122Z,9.20
2023-04-05T21:48:54.521Z,9.20
2023-04-05T21:51:24.390Z,9.20
2023-04-05T21:53:52.704Z,9.20
2023-04-05T21:56:21.079Z,9.20
2023-04-05T21:58:49.539Z,9.10
2023-04-05T22:01:17.970Z,9.10
2023-04-05T22:03:46.371Z,9.10
2023-04-05T22:06:14.654Z,9.10
2023-04-05T22:08:44.298Z,9.10
2023-04-05T22:11:12.960Z,9.10
2023-04-05T22:13:41.297Z,9.10
2023-04-05T22:16:09.856Z,9.10
2023-04-05T22:18:38.269Z,9.10
2023-04-05T22:21:06.984Z,9.10
2023-04-05T22:23:35.330Z,9.00
2023-04-05T22:26:05.251Z,9.00
2023-04-05T22:28:33.577Z,9.00
2023-04-05T22:31:02.024Z,9.00
2023-04-05T22:33:30.456Z,9.00
2023-04-05T22:35:58.739Z,9.00
2023-04-05T22:38:27.304Z,9.00
2023-04-05T22:40:55.564Z,9.00
2023-04-05T22:43:25.447Z,9.00
2023-04-05T22:45:53.761Z,8.90
2023-04-05T22:48:22.206Z,8.90
2023-04-05T22:50:51.530Z,8.90
2023-04-05T22:53:19.899Z,8.90
2023-04-05T22:55:48.229Z,8.90
2023-04-05T22:58:17.453Z,8.90
2023-04-05T23:00:47.189Z,8.90
2023-04-05T23:03:15.505Z,8.90
2023-04-05T23:05:43.830Z,8.90
2023-04-05T23:08:12.128Z,8.90
2023-04-05T23:10:40.480Z,8.90
2023-04-05T23:13:08.787Z,8.90
2023-04-05T23:15:37.257Z,8.90
2023-04-05T23:18:07.249Z,8.90
2023-04-05T23:20:35.648Z,8.80
2023-04-05T23:23:03.981Z,8.90
2023-04-05T23:25:32.453Z,8.80
2023-04-05T23:28:00.700Z,8.80
2023-04-05T23:30:28.994Z,8.80
2023-04-05T23:32:57.377Z,8.80
2023-04-05T23:35:27.257Z,8.80
2023-04-05T23:37:55.851Z,8.80
2023-04-05T23:40:24.340Z,8.80
2023-04-05T23:42:52.647Z,8.80
2023-04-05T23:45:21.022Z,8.80
2023-04-05T23:47:49.347Z,8.80
2023-04-05T23:50:17.766Z,8.70
2023-04-05T23:52:47.458Z,8.80
2023-04-05T23:55:15.859Z,8.80
2023-04-05T23:57:44.279Z,8.70
